Terminal Aerodrome Forecast
Issued by NWS

Home | Current Version | Previous Version | Text Only | Print | Product List | Glossary On
Versions: 1 2 3 4 5 6 7 8 9 10 11 12 13 14 15 16 17 18 19 20 21 22 23 24 25 26 27 28 29 30 31 32 33 34 35
215
FTUS42 KCAE 260520
TAFOGB
TAF
KOGB 260520Z 2606/2706 VRB03KT P6SM SCT080
      TEMPO 2609/2612 4SM BR
     FM261300 09005KT P6SM SCT040
     FM261700 11006KT P6SM VCTS BKN050CB
     FM270300 VRB03KT P6SM SCT040=

USA.gov is the U.S. government's official web portal to all federal, state and local government web resources and services.